Time;durP1;ratioP1;P1;durP2;ratioP2;P2;SDS_P1;SDS_P2;PMS_P1;PMS_P2;Temp;Humidity;BMP_temperature;BMP_pressure;BME280_temperature;BME280_humidity;BME280_pressure;Samples;Min_cycle;Max_cycle;Signal;HPM_P1;HPM_P2
2023/02/19 00:01:22;;;;;;;5.90;4.80;;;11.20;99.90;;;;;;5091791;27;20525;-64
2023/02/19 00:03:51;;;;;;;4.60;4.10;;;11.20;99.90;;;;;;5086191;27;20473;-64
2023/02/19 00:06:17;;;;;;;5.70;4.17;;;11.20;99.90;;;;;;5090482;28;20456;-64
2023/02/19 00:08:43;;;;;;;5.37;4.50;;;11.20;99.90;;;;;;5089190;27;20511;-64
2023/02/19 00:11:14;;;;;;;3.90;3.50;;;11.20;99.90;;;;;;5092982;27;20515;-64
2023/02/19 00:13:45;;;;;;;4.77;3.87;;;11.20;99.90;;;;;;5093986;27;20452;-64
2023/02/19 00:16:21;;;;;;;6.00;4.70;;;11.20;99.90;;;;;;5093760;27;20462;-64
2023/02/19 00:18:47;;;;;;;4.37;3.90;;;11.30;99.90;;;;;;5090846;27;20447;-64
2023/02/19 00:21:13;;;;;;;4.10;3.70;;;11.30;99.90;;;;;;5091071;27;20461;-64
2023/02/19 00:23:39;;;;;;;4.20;3.80;;;11.30;99.90;;;;;;5094012;27;20466;-64
2023/02/19 00:26:10;;;;;;;4.20;3.80;;;11.20;99.90;;;;;;5087823;27;21137;-64
2023/02/19 00:28:36;;;;;;;7.40;4.60;;;11.30;99.90;;;;;;5091451;28;20218;-64
2023/02/19 00:31:22;;;;;;;5.97;4.23;;;11.30;99.90;;;;;;5095854;27;20443;-64
2023/02/19 00:33:50;;;;;;;5.33;3.80;;;11.30;99.90;;;;;;5087725;27;20493;-64
2023/02/19 00:36:16;;;;;;;4.03;3.53;;;11.30;99.90;;;;;;5093391;27;20469;-64
2023/02/19 00:38:43;;;;;;;3.60;3.23;;;11.30;99.90;;;;;;5095656;27;20439;-64
2023/02/19 00:41:19;;;;;;;3.43;3.13;;;11.40;99.90;;;;;;5093485;27;20839;-64
2023/02/19 00:43:48;;;;;;;5.77;3.63;;;11.40;99.90;;;;;;5088584;27;20467;-64
2023/02/19 00:46:19;;;;;;;5.50;4.47;;;11.40;99.90;;;;;;5087241;28;20446;-64
2023/02/19 00:48:46;;;;;;;3.83;3.43;;;11.30;99.90;;;;;;5085437;27;20507;-64
2023/02/19 00:51:11;;;;;;;3.87;3.47;;;11.30;99.90;;;;;;5093101;28;20419;-64
2023/02/19 00:53:37;;;;;;;4.43;3.50;;;11.30;99.90;;;;;;5073351;28;20999;-64
2023/02/19 00:56:03;;;;;;;4.57;3.20;;;11.30;99.90;;;;;;5092306;27;20583;-64
2023/02/19 00:58:29;;;;;;;5.20;3.50;;;11.40;99.90;;;;;;5092756;27;20236;-64
2023/02/19 01:00:54;;;;;;;4.33;3.33;;;11.40;99.90;;;;;;5094436;28;20419;-64
2023/02/19 01:03:21;;;;;;;7.50;4.50;;;11.40;99.90;;;;;;5091819;27;20265;-64
2023/02/19 01:05:48;;;;;;;3.80;3.30;;;11.50;99.90;;;;;;5093000;27;20186;-64
2023/02/19 01:08:13;;;;;;;4.93;3.80;;;11.60;99.90;;;;;;5095255;27;20431;-65
2023/02/19 01:10:39;;;;;;;7.10;4.40;;;11.50;99.90;;;;;;5095686;27;20442;-64
2023/02/19 01:13:04;;;;;;;4.33;3.73;;;11.60;99.90;;;;;;5092238;28;21129;-65
2023/02/19 01:15:32;;;;;;;3.63;3.33;;;11.60;99.90;;;;;;5092191;27;20272;-64
2023/02/19 01:17:57;;;;;;;3.80;3.40;;;11.60;99.90;;;;;;5095030;27;20703;-64
2023/02/19 01:20:23;;;;;;;3.93;3.43;;;11.70;99.90;;;;;;5086562;28;20494;-64
2023/02/19 01:22:48;;;;;;;3.83;3.43;;;11.70;99.90;;;;;;5073423;28;20194;-64
2023/02/19 01:25:14;;;;;;;6.03;4.30;;;11.60;99.90;;;;;;5095033;28;20202;-64
2023/02/19 01:27:39;;;;;;;5.13;3.90;;;11.60;99.90;;;;;;5068028;28;20189;-64
2023/02/19 01:30:05;;;;;;;4.27;3.87;;;11.50;99.90;;;;;;5089050;28;20888;-65
2023/02/19 01:32:31;;;;;;;5.03;4.07;;;11.50;99.90;;;;;;5092267;28;20552;-64
2023/02/19 01:34:56;;;;;;;4.30;3.90;;;11.50;99.90;;;;;;5090474;28;20815;-64
2023/02/19 01:37:22;;;;;;;7.13;3.50;;;11.50;99.90;;;;;;5093579;28;21697;-64
2023/02/19 01:39:48;;;;;;;4.53;3.30;;;11.50;99.90;;;;;;5089330;28;20193;-64
2023/02/19 01:42:15;;;;;;;4.30;3.70;;;11.50;99.90;;;;;;5090695;28;20181;-64
2023/02/19 01:44:44;;;;;;;3.60;3.10;;;11.60;99.90;;;;;;5091571;28;20286;-64
2023/02/19 01:47:10;;;;;;;3.63;3.23;;;11.50;99.90;;;;;;5090790;27;20456;-64
2023/02/19 01:49:52;;;;;;;3.23;2.27;;;11.60;99.90;;;;;;5093288;28;20415;-64
2023/02/19 01:52:24;;;;;;;3.00;2.33;;;11.50;99.90;;;;;;5094113;27;20460;-64
2023/02/19 01:54:50;;;;;;;3.23;2.50;;;11.50;99.90;;;;;;5089195;28;21169;-64
2023/02/19 01:57:20;;;;;;;3.17;2.77;;;11.40;99.90;;;;;;5086947;27;20455;-64
2023/02/19 01:59:47;;;;;;;3.13;2.63;;;11.50;99.90;;;;;;5092145;27;20898;-65
2023/02/19 02:02:12;;;;;;;4.03;3.03;;;11.50;99.90;;;;;;5092257;27;20439;-64
2023/02/19 02:04:38;;;;;;;3.03;2.63;;;11.40;99.90;;;;;;5089770;27;20468;-64
2023/02/19 02:10:18;;;;;;;2.80;2.30;;;11.50;99.90;;;;;;5088672;28;20251;-64
2023/02/19 02:12:35;;;;;;;3.23;2.90;;;11.50;99.90;;;;;;5086802;27;20462;-65
2023/02/19 02:15:01;;;;;;;3.27;2.87;;;11.50;99.90;;;;;;5088267;27;20921;-64
2023/02/19 02:17:42;;;;;;;3.80;3.27;;;11.50;99.90;;;;;;5090023;28;20225;-64
2023/02/19 02:20:13;;;;;;;3.07;2.40;;;11.60;99.90;;;;;;5090397;27;20459;-64
2023/02/19 02:22:54;;;;;;;3.13;2.83;;;11.50;99.90;;;;;;5093279;28;20950;-64
2023/02/19 02:25:58;;;;;;;3.10;2.70;;;11.50;99.90;;;;;;5092944;27;20888;-63
2023/02/19 02:28:35;;;;;;;3.77;2.50;;;11.50;99.90;;;;;;5075211;28;20446;-64
2023/02/19 02:31:18;;;;;;;2.80;2.30;;;11.30;99.90;;;;;;5089497;27;20553;-64
2023/02/19 02:33:44;;;;;;;2.73;2.20;;;11.30;99.90;;;;;;5090714;28;20890;-64
2023/02/19 02:36:15;;;;;;;2.40;2.00;;;11.20;99.90;;;;;;5089270;28;22617;-64
2023/02/19 02:38:43;;;;;;;3.37;2.47;;;11.20;99.90;;;;;;5089486;28;20193;-64
2023/02/19 02:41:10;;;;;;;3.13;1.90;;;11.20;99.90;;;;;;5088970;28;21963;-63
2023/02/19 02:43:36;;;;;;;3.03;2.00;;;11.20;99.90;;;;;;5089007;28;20447;-63
2023/02/19 02:46:01;;;;;;;2.10;1.90;;;11.20;99.90;;;;;;5087153;28;20928;-64
2023/02/19 02:48:52;;;;;;;3.30;1.90;;;11.10;99.90;;;;;;5091060;28;20544;-64
2023/02/19 02:51:29;;;;;;;2.50;1.90;;;11.10;99.90;;;;;;5093355;28;20238;-64
2023/02/19 02:56:55;;;;;;;2.27;1.90;;;11.20;99.90;;;;;;5088189;28;20472;-64
2023/02/19 02:59:24;;;;;;;4.20;2.33;;;11.20;99.90;;;;;;5090388;28;20429;-63
2023/02/19 03:02:21;;;;;;;3.07;1.80;;;11.00;99.90;;;;;;5091507;28;20499;-63
2023/02/19 03:08:03;;;;;;;4.93;1.80;;;10.90;99.90;;;;;;5087094;28;20454;-63
2023/02/19 03:10:31;;;;;;;2.07;1.87;;;10.90;99.90;;;;;;5089933;28;20435;-63
2023/02/19 03:21:22;;;;;;;2.63;1.80;;;10.80;99.90;;;;;;5092997;28;20489;-63
2023/02/19 03:26:36;;;;;;;2.37;1.80;;;10.80;99.90;;;;;;5091838;28;20842;-63
2023/02/19 03:31:50;;;;;;;2.80;1.90;;;10.90;99.90;;;;;;5092541;28;20927;-63
2023/02/19 03:34:24;;;;;;;2.60;1.70;;;10.80;99.90;;;;;;5086576;28;21079;-63
2023/02/19 03:36:57;;;;;;;2.33;1.73;;;10.80;99.90;;;;;;5092571;28;20830;-63
2023/02/19 03:39:23;;;;;;;2.40;1.80;;;10.70;99.90;;;;;;5086163;28;20433;-63
2023/02/19 03:41:56;;;;;;;1.80;1.40;;;10.60;99.90;;;;;;5088778;28;20501;-63
2023/02/19 03:44:36;;;;;;;2.00;1.50;;;10.70;99.90;;;;;;5091897;28;21113;-63
2023/02/19 03:47:15;;;;;;;3.20;1.70;;;10.60;99.90;;;;;;5086875;28;20463;-63
2023/02/19 03:50:00;;;;;;;2.33;1.60;;;10.70;99.90;;;;;;5092046;28;20472;-63
2023/02/19 03:52:40;;;;;;;2.00;1.50;;;10.70;99.90;;;;;;5090625;28;20796;-63
2023/02/19 03:55:19;;;;;;;2.03;1.70;;;10.70;99.90;;;;;;5091436;28;20546;-63
2023/02/19 03:57:51;;;;;;;2.80;1.70;;;10.80;99.90;;;;;;5092684;28;20463;-63
2023/02/19 04:00:22;;;;;;;2.23;1.63;;;10.70;99.90;;;;;;5091496;28;20782;-63
2023/02/19 04:03:27;;;;;;;2.37;1.80;;;10.80;99.90;;;;;;5095708;27;20439;-63
2023/02/19 04:06:00;;;;;;;2.13;1.80;;;10.80;99.90;;;;;;5048402;28;20475;-63
2023/02/19 04:08:27;;;;;;;2.40;1.57;;;10.90;99.90;;;;;;5085487;28;20466;-63
2023/02/19 04:10:54;;;;;;;4.20;1.83;;;11.00;99.90;;;;;;5090442;27;20532;-64
2023/02/19 04:13:31;;;;;;;1.90;1.60;;;10.90;99.90;;;;;;5095468;27;20487;-63
2023/02/19 04:16:02;;;;;;;2.00;1.63;;;10.90;99.90;;;;;;5090110;28;20460;-63
2023/02/19 04:18:32;;;;;;;2.30;1.77;;;10.70;99.90;;;;;;5089384;27;20511;-63
2023/02/19 04:21:00;;;;;;;3.03;1.73;;;10.80;99.90;;;;;;5089920;28;20969;-63
2023/02/19 04:23:29;;;;;;;2.20;1.73;;;10.80;99.90;;;;;;5094006;27;20448;-64
2023/02/19 04:25:58;;;;;;;3.73;1.80;;;10.80;99.90;;;;;;5094807;28;20523;-63
2023/02/19 04:28:24;;;;;;;3.30;1.97;;;10.90;99.90;;;;;;5087551;27;20798;-63
2023/02/19 04:30:49;;;;;;;2.17;1.83;;;10.90;99.90;;;;;;5088636;27;20432;-63
2023/02/19 04:33:15;;;;;;;2.50;1.70;;;10.80;99.90;;;;;;5093394;27;20647;-63
2023/02/19 04:35:41;;;;;;;2.10;1.63;;;10.70;99.90;;;;;;5093090;27;20600;-63
2023/02/19 04:38:06;;;;;;;2.67;1.93;;;10.80;99.90;;;;;;5071384;27;20190;-63
2023/02/19 04:40:32;;;;;;;2.27;1.63;;;10.80;99.90;;;;;;5094698;27;20217;-63
2023/02/19 04:42:57;;;;;;;2.30;1.60;;;10.70;99.90;;;;;;5091027;28;20193;-63
2023/02/19 04:45:23;;;;;;;4.20;1.90;;;10.80;99.90;;;;;;5097374;28;20214;-63
2023/02/19 04:47:48;;;;;;;2.60;1.83;;;10.80;99.90;;;;;;5089823;27;20679;-63
2023/02/19 04:50:14;;;;;;;2.53;2.07;;;10.70;99.90;;;;;;5089543;27;21398;-64
2023/02/19 04:52:40;;;;;;;2.80;1.63;;;10.70;99.90;;;;;;5096029;27;20266;-64
2023/02/19 04:55:07;;;;;;;2.60;1.80;;;10.70;99.90;;;;;;5093320;27;20274;-63
2023/02/19 04:57:33;;;;;;;2.10;1.70;;;10.60;99.90;;;;;;5093795;28;20312;-63
2023/02/19 04:59:58;;;;;;;1.90;1.43;;;10.60;99.90;;;;;;5091964;27;20431;-63
2023/02/19 05:02:24;;;;;;;2.57;1.80;;;10.60;99.90;;;;;;5078747;28;20439;-63
2023/02/19 05:04:49;;;;;;;2.07;1.83;;;10.60;99.90;;;;;;5092189;27;20202;-63
2023/02/19 05:07:15;;;;;;;2.03;1.67;;;10.60;99.90;;;;;;5087783;28;20215;-63
2023/02/19 05:09:41;;;;;;;1.80;1.30;;;10.70;99.90;;;;;;5090331;27;20203;-63
2023/02/19 05:12:06;;;;;;;2.37;1.50;;;10.60;99.90;;;;;;5094250;27;20169;-63
2023/02/19 05:14:32;;;;;;;2.33;1.50;;;10.60;99.90;;;;;;5092042;28;20193;-63
2023/02/19 05:16:57;;;;;;;2.00;1.57;;;10.50;99.90;;;;;;5090571;28;20232;-63
2023/02/19 05:19:23;;;;;;;2.70;1.70;;;10.50;99.90;;;;;;5094096;27;20186;-63
2023/02/19 05:21:48;;;;;;;2.17;1.73;;;10.50;99.90;;;;;;5087848;27;20562;-63
2023/02/19 05:24:14;;;;;;;2.23;1.73;;;10.40;99.90;;;;;;5073619;28;20206;-64
2023/02/19 05:26:39;;;;;;;2.47;1.80;;;10.40;99.90;;;;;;5095663;28;20645;-63
2023/02/19 05:29:05;;;;;;;2.70;1.60;;;10.40;99.90;;;;;;5091421;28;20234;-63
2023/02/19 05:31:32;;;;;;;2.60;1.60;;;10.40;99.90;;;;;;5089800;28;20179;-63
2023/02/19 05:33:58;;;;;;;1.90;1.40;;;10.30;99.90;;;;;;5087634;28;20543;-63
2023/02/19 05:36:23;;;;;;;1.80;1.30;;;10.40;99.90;;;;;;5089322;28;20462;-64
2023/02/19 05:38:56;;;;;;;2.57;1.50;;;10.40;99.90;;;;;;5089411;28;20276;-64
2023/02/19 05:41:24;;;;;;;2.10;1.57;;;10.40;99.90;;;;;;5090348;27;20279;-64
2023/02/19 05:43:51;;;;;;;1.77;1.43;;;10.40;99.90;;;;;;5094847;27;20474;-64
2023/02/19 05:46:19;;;;;;;2.03;1.67;;;10.40;99.90;;;;;;5092306;28;20462;-63
2023/02/19 05:48:46;;;;;;;1.87;1.43;;;10.30;99.90;;;;;;5072770;28;20435;-63
2023/02/19 05:51:15;;;;;;;1.93;1.50;;;10.30;99.90;;;;;;5092082;28;20428;-63
2023/02/19 05:53:42;;;;;;;3.30;1.50;;;10.30;99.90;;;;;;5092862;28;20484;-63
2023/02/19 05:56:38;;;;;;;1.90;1.30;;;10.30;99.90;;;;;;5089091;27;20447;-63
2023/02/19 05:59:16;;;;;;;1.80;1.47;;;10.30;99.90;;;;;;5066507;28;20806;-63
2023/02/19 06:01:42;;;;;;;1.80;1.40;;;10.30;99.90;;;;;;5093430;28;20428;-63
2023/02/19 06:04:09;;;;;;;3.30;1.90;;;10.20;99.90;;;;;;5091387;27;20533;-63
2023/02/19 06:06:35;;;;;;;1.83;1.53;;;10.20;99.90;;;;;;5093212;27;20629;-63
2023/02/19 06:09:02;;;;;;;5.13;1.70;;;10.30;99.90;;;;;;5073117;28;20442;-63
2023/02/19 06:11:28;;;;;;;1.77;1.40;;;10.30;99.90;;;;;;5089073;28;20522;-64
2023/02/19 06:13:53;;;;;;;2.27;1.80;;;10.30;99.90;;;;;;5088649;27;20535;-64
2023/02/19 06:16:20;;;;;;;2.00;1.60;;;10.30;99.90;;;;;;5089882;28;20463;-63
2023/02/19 06:18:46;;;;;;;2.47;1.77;;;10.40;99.90;;;;;;5089261;28;20366;-63
2023/02/19 06:21:14;;;;;;;2.67;2.10;;;10.40;99.90;;;;;;5088473;28;21291;-63
2023/02/19 06:23:39;;;;;;;2.20;1.40;;;10.40;99.90;;;;;;5092440;27;20439;-63
2023/02/19 06:26:10;;;;;;;2.30;1.73;;;10.40;99.90;;;;;;5087330;27;20459;-63
2023/02/19 06:28:36;;;;;;;2.40;1.60;;;10.50;99.90;;;;;;5088579;28;20178;-63
2023/02/19 06:31:02;;;;;;;2.47;1.63;;;10.50;99.90;;;;;;5091081;27;20843;-64
2023/02/19 06:33:28;;;;;;;2.20;1.60;;;10.40;99.90;;;;;;5090431;27;20432;-64
2023/02/19 06:35:56;;;;;;;2.20;1.60;;;10.40;99.90;;;;;;5088086;27;21051;-64
2023/02/19 06:38:22;;;;;;;1.97;1.47;;;10.40;99.90;;;;;;5088750;28;20626;-64
2023/02/19 06:40:47;;;;;;;1.83;1.53;;;10.40;99.90;;;;;;5090377;28;20464;-64
2023/02/19 06:43:13;;;;;;;2.00;1.60;;;10.30;99.90;;;;;;5086527;28;20181;-64
2023/02/19 06:45:38;;;;;;;1.97;1.43;;;10.30;99.90;;;;;;5095032;27;20640;-64
2023/02/19 06:48:04;;;;;;;2.30;1.90;;;10.30;99.90;;;;;;5089490;28;20584;-64
2023/02/19 06:50:30;;;;;;;2.10;1.53;;;10.30;99.90;;;;;;5096521;28;20233;-64
2023/02/19 06:52:55;;;;;;;1.80;1.50;;;10.30;99.90;;;;;;5093783;28;20793;-64
2023/02/19 06:55:21;;;;;;;2.47;1.67;;;10.50;99.90;;;;;;5093129;28;20225;-64
2023/02/19 06:57:46;;;;;;;1.93;1.40;;;10.60;99.90;;;;;;5075306;28;20221;-64
2023/02/19 07:00:12;;;;;;;1.80;1.30;;;10.50;99.90;;;;;;5090638;28;20194;-64
2023/02/19 07:02:38;;;;;;;2.40;1.70;;;10.40;99.90;;;;;;5077180;28;20193;-64
2023/02/19 07:05:04;;;;;;;2.37;1.73;;;10.40;99.90;;;;;;5090762;28;20562;-64
2023/02/19 07:07:29;;;;;;;2.20;1.50;;;10.40;99.90;;;;;;5092689;28;20213;-64
2023/02/19 07:09:55;;;;;;;3.07;1.57;;;10.40;99.90;;;;;;5088497;28;20573;-64
2023/02/19 07:12:20;;;;;;;2.33;1.67;;;10.50;99.90;;;;;;5085784;28;20298;-64
2023/02/19 07:14:46;;;;;;;2.30;1.90;;;10.50;99.90;;;;;;5093014;28;20234;-64
2023/02/19 07:17:12;;;;;;;2.40;1.90;;;10.60;99.90;;;;;;5092696;28;20215;-64
2023/02/19 07:19:38;;;;;;;3.20;2.37;;;10.60;99.90;;;;;;5090864;28;20440;-64
2023/02/19 07:22:03;;;;;;;4.63;1.80;;;10.70;99.90;;;;;;5089279;28;20200;-64
2023/02/19 07:24:29;;;;;;;2.50;2.00;;;10.70;99.90;;;;;;5086833;28;20686;-64
2023/02/19 07:26:54;;;;;;;3.27;2.10;;;10.70;99.90;;;;;;5089866;28;20206;-64
2023/02/19 07:29:20;;;;;;;2.30;2.10;;;10.80;99.90;;;;;;5090887;27;20194;-64
2023/02/19 07:31:45;;;;;;;3.90;2.50;;;10.80;99.90;;;;;;5080222;28;20267;-64
2023/02/19 07:34:11;;;;;;;2.70;2.20;;;10.80;99.90;;;;;;5093684;27;20182;-64
2023/02/19 07:36:37;;;;;;;2.90;2.40;;;10.80;99.90;;;;;;5094850;27;20750;-64
2023/02/19 07:39:03;;;;;;;2.80;2.10;;;10.80;99.90;;;;;;5096160;27;20239;-64
2023/02/19 07:41:28;;;;;;;2.53;2.00;;;10.90;99.90;;;;;;5087887;28;20875;-64
2023/02/19 07:43:54;;;;;;;3.23;2.67;;;10.90;99.90;;;;;;5088699;27;20512;-64
2023/02/19 07:46:20;;;;;;;3.07;2.50;;;11.00;99.90;;;;;;5092046;27;20579;-64
2023/02/19 07:48:45;;;;;;;1.93;1.60;;;10.90;99.90;;;;;;5091945;28;20193;-64
2023/02/19 07:51:17;;;;;;;3.20;1.97;;;11.00;99.90;;;;;;5089646;28;20430;-64
2023/02/19 07:53:44;;;;;;;3.60;2.93;;;11.00;99.90;;;;;;5093015;27;20194;-64
2023/02/19 07:56:12;;;;;;;4.30;2.73;;;10.90;99.90;;;;;;5090790;28;21577;-64
2023/02/19 07:58:37;;;;;;;3.37;2.70;;;10.80;99.90;;;;;;5090391;27;20551;-63
2023/02/19 08:01:17;;;;;;;3.77;2.63;;;10.80;99.90;;;;;;5097336;28;21043;-63
2023/02/19 08:03:44;;;;;;;3.20;2.50;;;10.80;99.90;;;;;;5093112;28;20643;-63
2023/02/19 08:06:10;;;;;;;3.50;2.90;;;10.70;99.90;;;;;;5098524;27;20435;-64
2023/02/19 08:08:37;;;;;;;2.90;2.60;;;10.80;99.90;;;;;;5089176;27;20435;-64
2023/02/19 08:13:50;;;;;;;2.90;2.60;;;10.80;99.90;;;;;;5096975;28;20510;-64
2023/02/19 08:16:18;;;;;;;2.97;2.67;;;10.80;99.90;;;;;;5072412;28;20491;-64
2023/02/19 08:18:44;;;;;;;3.13;2.53;;;10.80;99.90;;;;;;5078316;28;20451;-64
2023/02/19 08:21:11;;;;;;;4.00;3.60;;;10.90;99.90;;;;;;5090521;27;21200;-63
2023/02/19 08:23:36;;;;;;;3.50;2.83;;;11.00;99.90;;;;;;5097461;27;20808;-63
2023/02/19 08:26:02;;;;;;;2.93;2.50;;;11.00;99.90;;;;;;5092866;27;20622;-64
2023/02/19 08:28:29;;;;;;;2.50;2.30;;;11.00;99.90;;;;;;5095967;28;20193;-63
2023/02/19 08:30:59;;;;;;;5.00;2.70;;;11.00;99.90;;;;;;5094207;27;21012;-64
2023/02/19 08:33:25;;;;;;;3.73;2.67;;;11.00;99.90;;;;;;5089112;28;20447;-65
2023/02/19 08:35:50;;;;;;;2.40;2.20;;;11.10;99.90;;;;;;5095707;28;20898;-64
2023/02/19 08:38:16;;;;;;;4.23;2.90;;;11.10;99.90;;;;;;5091512;28;20197;-64
2023/02/19 08:40:42;;;;;;;3.40;3.03;;;11.00;99.90;;;;;;5080568;28;20189;-64
2023/02/19 08:43:13;;;;;;;4.30;3.03;;;11.10;99.90;;;;;;5095174;27;20174;-64
2023/02/19 08:45:43;;;;;;;3.73;3.30;;;11.20;99.90;;;;;;5091709;27;20209;-64
2023/02/19 08:48:09;;;;;;;4.10;2.87;;;11.30;99.90;;;;;;5093689;27;20868;-64
2023/02/19 08:50:35;;;;;;;3.30;2.93;;;11.20;99.90;;;;;;5092893;27;20519;-64
2023/02/19 08:53:02;;;;;;;3.83;3.20;;;11.20;99.90;;;;;;5097549;27;20442;-63
2023/02/19 08:55:28;;;;;;;4.40;3.40;;;11.30;99.90;;;;;;5088457;27;20428;-63
2023/02/19 08:57:54;;;;;;;4.50;3.50;;;11.30;99.90;;;;;;5091279;27;20915;-63
2023/02/19 09:00:20;;;;;;;3.40;3.10;;;11.30;99.90;;;;;;5068065;28;20285;-63
2023/02/19 09:02:46;;;;;;;5.83;3.33;;;11.50;99.90;;;;;;5078551;28;20538;-63
2023/02/19 09:05:12;;;;;;;3.77;2.97;;;11.50;99.90;;;;;;5094280;28;20205;-63
2023/02/19 09:07:38;;;;;;;4.30;3.23;;;11.60;99.90;;;;;;5085127;28;20467;-63
2023/02/19 09:10:04;;;;;;;4.43;2.60;;;11.60;99.90;;;;;;5068076;28;20342;-63
2023/02/19 09:12:30;;;;;;;3.83;2.80;;;11.50;99.90;;;;;;5086898;28;20849;-63
2023/02/19 09:14:55;;;;;;;5.10;3.57;;;11.50;99.90;;;;;;5092374;27;20440;-63
2023/02/19 09:17:21;;;;;;;4.00;2.87;;;11.50;99.90;;;;;;5091286;27;20216;-63
2023/02/19 09:19:46;;;;;;;3.77;2.90;;;11.50;99.90;;;;;;5076723;28;20187;-62
2023/02/19 09:22:12;;;;;;;4.60;2.90;;;11.50;99.90;;;;;;5076080;28;20686;-62
2023/02/19 09:24:37;;;;;;;3.33;2.73;;;11.50;99.90;;;;;;5090680;28;20603;-62
2023/02/19 09:27:03;;;;;;;6.60;3.50;;;11.60;99.90;;;;;;5100405;27;20204;-63
2023/02/19 09:29:29;;;;;;;5.43;2.70;;;11.70;99.90;;;;;;5094997;27;20190;-62
2023/02/19 09:31:56;;;;;;;4.73;2.97;;;11.70;99.90;;;;;;5091298;27;20185;-62
2023/02/19 09:34:22;;;;;;;5.30;3.47;;;11.70;99.90;;;;;;5090459;27;20444;-62
2023/02/19 09:36:49;;;;;;;3.40;3.10;;;11.70;99.90;;;;;;5090438;27;20464;-62
2023/02/19 09:39:14;;;;;;;3.83;2.90;;;11.70;99.90;;;;;;5088544;27;20475;-64
2023/02/19 09:41:47;;;;;;;3.90;3.00;;;11.80;99.90;;;;;;5091017;28;20463;-63
2023/02/19 09:44:34;;;;;;;3.80;3.40;;;11.70;99.90;;;;;;5088821;27;20236;-63
2023/02/19 09:47:02;;;;;;;3.33;2.50;;;11.70;99.90;;;;;;5090794;27;20667;-64
2023/02/19 09:49:35;;;;;;;3.87;2.80;;;11.70;99.90;;;;;;5074359;28;20446;-64
2023/02/19 09:52:26;;;;;;;5.63;2.70;;;11.60;99.90;;;;;;5090835;27;20433;-63
2023/02/19 09:54:56;;;;;;;7.17;3.40;;;11.50;99.90;;;;;;5090356;28;20443;-63
2023/02/19 09:57:24;;;;;;;4.10;2.70;;;11.60;99.90;;;;;;5091249;28;20836;-63
2023/02/19 09:59:57;;;;;;;4.30;3.20;;;11.60;99.90;;;;;;5090809;28;20443;-63
2023/02/19 10:02:25;;;;;;;4.83;2.90;;;11.50;99.90;;;;;;5089232;27;20431;-63
2023/02/19 10:04:51;;;;;;;4.90;3.30;;;11.50;99.90;;;;;;5088683;27;20471;-64
2023/02/19 10:07:22;;;;;;;4.40;3.10;;;11.60;99.90;;;;;;5089942;28;20455;-64
2023/02/19 10:10:20;;;;;;;3.70;2.73;;;11.60;99.90;;;;;;5090074;27;20468;-63
2023/02/19 10:12:49;;;;;;;7.80;3.40;;;11.60;99.90;;;;;;5092615;27;20473;-63
2023/02/19 10:15:24;;;;;;;5.57;3.20;;;11.60;99.90;;;;;;5090475;27;20442;-64
2023/02/19 10:17:49;;;;;;;6.80;4.00;;;11.80;99.90;;;;;;5090119;28;20546;-63
2023/02/19 10:20:18;;;;;;;3.47;2.87;;;11.90;99.90;;;;;;5087117;27;20526;-63
2023/02/19 10:22:44;;;;;;;5.53;3.00;;;11.80;99.90;;;;;;5090562;28;20194;-63
2023/02/19 10:25:15;;;;;;;6.60;3.10;;;11.70;99.90;;;;;;5093653;28;21365;-63
2023/02/19 10:27:41;;;;;;;4.73;3.30;;;11.70;99.90;;;;;;5089608;28;20451;-63
2023/02/19 10:30:21;;;;;;;5.90;3.33;;;11.70;99.90;;;;;;5090482;28;20974;-63
2023/02/19 10:33:02;;;;;;;3.63;2.77;;;11.80;99.90;;;;;;5086619;28;20440;-63
2023/02/19 10:35:28;;;;;;;5.73;3.13;;;11.70;99.90;;;;;;5086293;28;20439;-63
2023/02/19 10:37:55;;;;;;;5.57;3.10;;;11.60;99.90;;;;;;5095576;27;20469;-63
2023/02/19 10:40:24;;;;;;;5.50;3.20;;;11.70;99.90;;;;;;5092205;27;20476;-65
2023/02/19 10:43:00;;;;;;;5.50;3.27;;;11.80;99.90;;;;;;5099066;28;20419;-63
2023/02/19 10:45:32;;;;;;;7.57;3.80;;;11.80;99.90;;;;;;5074172;28;21392;-63
2023/02/19 10:47:59;;;;;;;7.47;3.00;;;11.90;99.90;;;;;;5090100;28;20824;-63
2023/02/19 10:50:31;;;;;;;3.90;3.10;;;12.10;99.90;;;;;;5088905;27;20510;-63
2023/02/19 10:52:58;;;;;;;4.10;2.80;;;12.20;99.90;;;;;;5079079;28;20487;-63
2023/02/19 10:55:30;;;;;;;4.83;3.23;;;12.30;99.90;;;;;;5086680;28;21292;-63
2023/02/19 10:57:56;;;;;;;3.50;2.70;;;12.50;99.90;;;;;;5087820;28;20463;-63
2023/02/19 11:00:29;;;;;;;4.40;2.83;;;12.50;99.90;;;;;;5096043;28;20434;-63
2023/02/19 11:03:17;;;;;;;5.37;2.97;;;12.50;99.90;;;;;;5094664;28;20833;-63
2023/02/19 11:06:01;;;;;;;5.50;3.40;;;12.60;99.90;;;;;;5094358;27;20470;-63
2023/02/19 11:08:28;;;;;;;6.00;2.87;;;12.50;99.90;;;;;;5091924;28;20447;-63
2023/02/19 11:10:54;;;;;;;3.70;3.00;;;12.50;99.90;;;;;;5093630;27;20908;-63
2023/02/19 11:13:31;;;;;;;7.60;3.00;;;12.60;99.90;;;;;;5093750;27;20442;-63
2023/02/19 11:15:58;;;;;;;4.87;2.90;;;12.90;99.90;;;;;;5092568;28;20976;-63
2023/02/19 11:18:31;;;;;;;6.17;3.50;;;12.80;99.90;;;;;;5077989;27;20424;-63
2023/02/19 11:21:03;;;;;;;6.13;2.80;;;12.70;99.90;;;;;;5091035;27;20452;-63
2023/02/19 11:23:42;;;;;;;3.70;3.00;;;12.60;99.90;;;;;;5096889;27;21732;-63
2023/02/19 11:26:18;;;;;;;4.50;2.90;;;12.60;99.90;;;;;;5096187;28;20462;-63
2023/02/19 11:28:44;;;;;;;4.10;3.13;;;12.80;99.90;;;;;;5095851;27;22305;-63
2023/02/19 11:31:14;;;;;;;6.20;2.83;;;13.00;99.90;;;;;;5097485;27;20416;-63
2023/02/19 11:33:59;;;;;;;4.67;2.63;;;13.10;99.90;;;;;;5078405;28;20210;-63
2023/02/19 11:36:32;;;;;;;4.03;3.07;;;13.20;99.90;;;;;;5094532;27;20522;-63
2023/02/19 11:39:02;;;;;;;4.13;2.80;;;13.20;99.90;;;;;;5096939;27;20776;-63
2023/02/19 11:41:58;;;;;;;6.67;3.10;;;13.30;99.90;;;;;;5095744;27;20483;-63
2023/02/19 11:44:47;;;;;;;4.17;3.60;;;13.10;99.90;;;;;;5093115;28;20455;-63
2023/02/19 11:47:31;;;;;;;7.30;3.53;;;13.00;99.90;;;;;;5096992;27;20617;-64
2023/02/19 11:50:28;;;;;;;9.17;3.00;;;12.90;99.90;;;;;;5090709;27;20574;-63
2023/02/19 11:53:01;;;;;;;4.30;2.80;;;12.80;99.90;;;;;;5092868;28;20418;-63
2023/02/19 11:55:33;;;;;;;5.17;3.10;;;12.90;99.90;;;;;;5091934;27;20431;-63
2023/02/19 11:58:31;;;;;;;4.83;2.50;;;13.10;99.90;;;;;;5093468;27;20454;-63
2023/02/19 12:01:16;;;;;;;5.10;3.10;;;13.10;99.90;;;;;;5096004;27;20424;-63
2023/02/19 12:04:02;;;;;;;5.70;3.00;;;13.20;99.90;;;;;;5077118;28;20453;-62
2023/02/19 12:06:45;;;;;;;5.50;3.27;;;13.20;99.90;;;;;;5096436;27;21267;-62
2023/02/19 12:09:32;;;;;;;6.60;3.90;;;13.20;99.90;;;;;;5097980;27;20847;-62
2023/02/19 12:12:23;;;;;;;3.90;3.13;;;13.10;99.90;;;;;;5095134;27;20470;-62
2023/02/19 12:15:14;;;;;;;4.60;3.57;;;13.00;99.90;;;;;;5078894;28;20451;-62
2023/02/19 12:18:06;;;;;;;5.20;2.93;;;13.10;99.90;;;;;;5097012;28;20479;-62
2023/02/19 12:21:04;;;;;;;6.10;3.60;;;13.00;99.90;;;;;;5073381;28;21012;-62
2023/02/19 12:24:05;;;;;;;4.33;3.37;;;13.10;99.90;;;;;;5093996;28;20426;-62
2023/02/19 12:26:46;;;;;;;7.07;3.17;;;13.20;99.90;;;;;;5093293;27;20470;-63
2023/02/19 12:29:49;;;;;;;5.13;3.60;;;13.30;99.90;;;;;;5093673;28;20425;-63
2023/02/19 12:32:34;;;;;;;6.00;3.27;;;13.00;99.90;;;;;;5091845;28;20439;-63
2023/02/19 12:35:06;;;;;;;6.20;3.10;;;12.80;99.90;;;;;;5091233;28;20420;-63
2023/02/19 12:38:02;;;;;;;7.03;4.10;;;13.00;99.90;;;;;;5098723;27;21324;-62
2023/02/19 12:40:36;;;;;;;6.00;4.17;;;12.90;99.90;;;;;;5089128;28;20482;-62
2023/02/19 12:43:14;;;;;;;7.13;4.30;;;13.00;99.90;;;;;;5092415;28;20553;-62
2023/02/19 12:45:52;;;;;;;5.90;3.10;;;13.00;99.90;;;;;;5086228;28;20459;-62
2023/02/19 12:48:29;;;;;;;3.47;2.80;;;12.90;99.90;;;;;;5091879;27;20431;-62
2023/02/19 12:51:09;;;;;;;5.97;3.50;;;12.70;99.90;;;;;;5090385;27;20439;-63
2023/02/19 12:54:03;;;;;;;5.13;3.20;;;12.70;99.90;;;;;;5087140;27;20416;-63
2023/02/19 12:56:51;;;;;;;8.07;3.20;;;12.70;99.90;;;;;;5092905;28;20451;-63
2023/02/19 12:59:40;;;;;;;3.50;3.00;;;12.50;99.90;;;;;;5085998;27;20412;-63
2023/02/19 13:02:32;;;;;;;5.03;3.10;;;12.70;99.90;;;;;;5089647;28;20420;-63
2023/02/19 13:05:02;;;;;;;5.30;2.77;;;12.70;99.90;;;;;;5088588;28;21030;-63
2023/02/19 13:08:05;;;;;;;3.03;2.50;;;12.80;99.90;;;;;;5074998;28;20451;-63
2023/02/19 13:10:41;;;;;;;5.97;2.97;;;12.80;99.90;;;;;;5088732;28;20801;-62
2023/02/19 13:13:23;;;;;;;5.17;4.07;;;12.70;99.90;;;;;;5091666;28;20476;-62
2023/02/19 13:15:53;;;;;;;5.50;2.50;;;12.90;99.90;;;;;;5091493;27;20470;-62
2023/02/19 13:18:25;;;;;;;2.97;2.37;;;13.00;99.90;;;;;;5094952;27;20455;-62
2023/02/19 13:20:53;;;;;;;7.37;4.30;;;13.00;99.90;;;;;;5088279;27;20522;-63
2023/02/19 13:26:36;;;;;;;2.77;2.27;;;13.00;99.90;;;;;;5089642;28;20550;-62
2023/02/19 13:29:11;;;;;;;4.33;2.30;;;13.30;99.90;;;;;;5091367;27;20903;-63
2023/02/19 13:32:14;;;;;;;7.00;2.40;;;13.40;99.90;;;;;;5092307;28;20463;-64
2023/02/19 13:35:34;;;;;;;5.07;2.70;;;13.40;99.90;;;;;;5082446;28;20454;-64
2023/02/19 13:38:01;;;;;;;5.40;3.07;;;13.40;99.90;;;;;;5066314;28;20455;-64